createdAt,value
2024-05-09T00:01:11.127Z,12.01
2024-05-09T00:04:20.727Z,11.85
2024-05-09T00:07:29.808Z,11.88
2024-05-09T00:10:41.814Z,11.92
2024-05-09T00:13:55.400Z,11.85
2024-05-09T00:17:04.719Z,11.73
2024-05-09T00:20:20.237Z,11.56
2024-05-09T00:23:33.677Z,11.43
2024-05-09T00:26:45.153Z,11.18
2024-05-09T00:29:56.794Z,11.24
2024-05-09T00:33:08.508Z,10.95
2024-05-09T00:36:20.545Z,10.83
2024-05-09T00:39:31.334Z,10.66
2024-05-09T00:42:42.737Z,10.52
2024-05-09T00:45:55.925Z,10.58
2024-05-09T00:49:09.765Z,10.38
2024-05-09T00:52:20.558Z,10.02
2024-05-09T00:55:32.127Z,9.89
2024-05-09T00:58:40.981Z,9.97
2024-05-09T01:01:54.169Z,9.84
2024-05-09T01:05:03.604Z,9.99
2024-05-09T01:08:13.245Z,9.81
2024-05-09T01:11:28.219Z,9.97
2024-05-09T01:14:38.410Z,9.67
2024-05-09T01:17:50.340Z,10.08
2024-05-09T01:20:59.936Z,10.27
2024-05-09T01:24:11.860Z,10.45
2024-05-09T01:27:20.572Z,11.27
2024-05-09T01:30:34.690Z,12.27
2024-05-09T01:33:45.839Z,12.43
2024-05-09T01:36:55.100Z,12.39
2024-05-09T01:40:11.971Z,12.03
2024-05-09T01:43:23.831Z,12.20
2024-05-09T01:46:32.950Z,12.17
2024-05-09T01:49:42.855Z,13.39
2024-05-09T01:52:51.546Z,12.91
2024-05-09T01:56:03.437Z,13.57
2024-05-09T01:59:12.749Z,15.20
2024-05-09T02:02:21.899Z,15.53
2024-05-09T02:05:30.461Z,15.60
2024-05-09T02:08:39.250Z,15.29
2024-05-09T02:11:53.200Z,15.63
2024-05-09T02:15:02.473Z,15.91
2024-05-09T02:18:15.546Z,16.43
2024-05-09T02:21:24.709Z,16.63
2024-05-09T02:24:33.435Z,16.90
2024-05-09T02:27:45.180Z,17.02
2024-05-09T02:30:54.309Z,17.03
2024-05-09T02:34:05.763Z,16.53
2024-05-09T02:37:14.960Z,15.44
2024-05-09T02:40:28.408Z,15.41
2024-05-09T02:43:45.699Z,14.98
2024-05-09T02:46:53.436Z,15.60
2024-05-09T02:50:02.388Z,16.75
2024-05-09T02:53:10.207Z,17.10
2024-05-09T02:56:19.343Z,18.09
2024-05-09T02:59:31.063Z,18.33
2024-05-09T03:02:37.238Z,18.11
2024-05-09T03:05:46.816Z,18.74
2024-05-09T03:08:56.008Z,17.35
2024-05-09T03:12:02.064Z,17.86
2024-05-09T03:15:14.189Z,18.05
2024-05-09T03:18:20.241Z,17.05
2024-05-09T03:21:30.662Z,17.03
2024-05-09T03:24:36.815Z,16.82
2024-05-09T03:27:45.622Z,17.30
2024-05-09T03:30:58.858Z,16.57
2024-05-09T03:34:08.980Z,16.55
2024-05-09T03:37:18.739Z,17.21
2024-05-09T03:40:30.841Z,17.61
2024-05-09T03:43:40.511Z,18.11
2024-05-09T03:46:52.075Z,17.15
2024-05-09T03:49:58.112Z,17.71
2024-05-09T03:53:07.441Z,17.17
2024-05-09T03:56:13.773Z,17.42
2024-05-09T03:59:22.682Z,17.87
2024-05-09T04:02:36.464Z,17.23
2024-05-09T04:05:44.643Z,17.45
2024-05-09T04:08:54.459Z,17.22
2024-05-09T04:12:00.350Z,17.36
2024-05-09T04:15:12.876Z,17.83
2024-05-09T04:18:25.554Z,17.82
2024-05-09T04:21:31.736Z,17.61
2024-05-09T04:24:40.979Z,17.62
2024-05-09T04:27:46.621Z,17.56
2024-05-09T04:30:56.213Z,17.21
2024-05-09T04:34:06.159Z,17.34
2024-05-09T04:37:15.422Z,16.89
2024-05-09T04:40:28.330Z,16.71
2024-05-09T04:43:42.611Z,16.71
2024-05-09T04:46:49.920Z,17.25
2024-05-09T04:50:01.708Z,17.10
2024-05-09T04:53:12.995Z,17.27
2024-05-09T04:56:18.897Z,17.29
2024-05-09T04:59:27.572Z,17.58
2024-05-09T05:02:36.262Z,17.40
2024-05-09T05:05:46.471Z,17.73
2024-05-09T05:08:55.731Z,17.46
2024-05-09T05:12:03.897Z,17.49
2024-05-09T05:15:13.533Z,17.73
2024-05-09T05:18:20.257Z,18.00
2024-05-09T05:21:31.879Z,17.89
2024-05-09T05:24:40.972Z,17.76
2024-05-09T05:27:47.245Z,17.50
2024-05-09T05:30:56.508Z,17.43
2024-05-09T05:34:02.548Z,17.73
2024-05-09T05:37:14.822Z,17.68
2024-05-09T05:40:28.229Z,17.87
2024-05-09T05:43:44.309Z,17.73
2024-05-09T05:46:53.399Z,17.91
2024-05-09T05:49:59.939Z,17.76
2024-05-09T05:53:13.311Z,17.72
2024-05-09T05:56:22.273Z,17.82
2024-05-09T05:59:30.215Z,17.89
2024-05-09T06:02:39.364Z,17.19
2024-05-09T06:05:46.935Z,17.16
2024-05-09T06:08:59.554Z,17.38
2024-05-09T06:12:05.612Z,17.55
2024-05-09T06:15:15.232Z,17.53
2024-05-09T06:18:24.554Z,17.62
2024-05-09T06:21:30.576Z,17.69
2024-05-09T06:24:42.217Z,17.54
2024-05-09T06:27:48.642Z,17.60
2024-05-09T06:31:12.860Z,17.86
2024-05-09T06:35:00.495Z,17.48
2024-05-09T06:38:13.028Z,17.37
2024-05-09T06:41:22.823Z,17.25
2024-05-09T06:44:32.716Z,17.10
2024-05-09T06:47:45.074Z,17.02
2024-05-09T06:50:58.326Z,17.05
2024-05-09T06:54:09.628Z,17.28
2024-05-09T06:57:22.338Z,17.32
2024-05-09T07:00:35.664Z,17.12
2024-05-09T07:03:48.556Z,16.90
2024-05-09T07:06:56.750Z,16.85
2024-05-09T07:10:07.791Z,16.93
2024-05-09T07:13:21.848Z,16.98
2024-05-09T07:16:28.283Z,16.99
2024-05-09T07:19:39.926Z,17.10
2024-05-09T07:22:47.740Z,16.90
2024-05-09T07:25:59.595Z,16.97
2024-05-09T07:29:13.001Z,16.90
2024-05-09T07:32:22.035Z,16.89
2024-05-09T07:35:31.619Z,16.94
2024-05-09T07:38:38.147Z,16.88
2024-05-09T07:41:53.073Z,15.93
2024-05-09T07:45:21.059Z,16.69
2024-05-09T07:50:01.415Z,16.61
2024-05-09T07:53:25.338Z,16.67
2024-05-09T07:55:26.728Z,16.58
2024-05-09T07:58:35.709Z,16.34
2024-05-09T08:01:48.305Z,16.19
2024-05-09T08:04:54.526Z,16.26
2024-05-09T08:08:03.782Z,16.39
2024-05-09T08:11:09.374Z,16.30
2024-05-09T08:14:18.979Z,16.28
2024-05-09T08:17:30.042Z,16.19
2024-05-09T08:20:39.169Z,15.84
2024-05-09T08:23:47.877Z,15.93
2024-05-09T08:26:56.881Z,15.99
2024-05-09T08:30:03.984Z,15.87
2024-05-09T08:33:16.314Z,15.91
2024-05-09T08:36:23.975Z,15.76
2024-05-09T08:39:33.348Z,15.60
2024-05-09T08:42:48.331Z,15.60
2024-05-09T08:45:57.167Z,15.52
2024-05-09T08:49:06.348Z,15.53
2024-05-09T08:52:15.579Z,15.42
2024-05-09T08:55:21.811Z,15.47
2024-05-09T08:58:34.295Z,15.09
2024-05-09T09:01:45.939Z,15.39
2024-05-09T09:05:01.976Z,15.31
2024-05-09T09:08:13.018Z,15.41
2024-05-09T09:11:21.480Z,15.41
2024-05-09T09:14:30.642Z,15.20
2024-05-09T09:17:37.757Z,15.09
2024-05-09T09:20:49.846Z,15.04
2024-05-09T09:23:56.280Z,14.78
2024-05-09T09:27:05.373Z,14.76
2024-05-09T09:30:27.279Z,14.67
2024-05-09T09:33:46.264Z,14.51
2024-05-09T09:37:02.541Z,14.38
2024-05-09T09:40:13.347Z,14.29
2024-05-09T09:43:25.018Z,13.99
2024-05-09T09:46:31.883Z,14.14
2024-05-09T09:49:41.810Z,13.66
2024-05-09T09:52:52.024Z,13.90
2024-05-09T09:56:03.649Z,13.77
2024-05-09T09:59:14.281Z,13.66
2024-05-09T10:02:20.099Z,13.46
2024-05-09T10:05:29.594Z,13.35
2024-05-09T10:08:40.308Z,12.98
2024-05-09T10:11:52.325Z,12.98
2024-05-09T10:15:00.562Z,12.94
2024-05-09T10:18:11.278Z,12.80
2024-05-09T10:21:23.933Z,12.63
2024-05-09T10:24:51.190Z,12.36
2024-05-09T10:27:58.724Z,12.27
2024-05-09T10:31:12.131Z,12.22
2024-05-09T10:34:25.495Z,12.20
2024-05-09T10:37:32.824Z,12.00
2024-05-09T10:40:45.959Z,11.95
2024-05-09T10:43:55.745Z,11.88
2024-05-09T10:47:02.003Z,11.74
2024-05-09T10:50:18.561Z,11.47
2024-05-09T10:53:30.994Z,11.57
2024-05-09T10:56:43.025Z,11.45
2024-05-09T10:59:51.860Z,11.31
2024-05-09T11:03:01.010Z,11.20
2024-05-09T11:06:07.909Z,11.09
2024-05-09T11:09:16.895Z,11.13
2024-05-09T11:12:35.418Z,10.92
2024-05-09T11:15:44.410Z,10.91
2024-05-09T11:18:57.948Z,10.73
2024-05-09T11:22:08.140Z,10.58
2024-05-09T11:25:15.607Z,10.50
2024-05-09T11:28:29.213Z,10.36
2024-05-09T11:31:50.735Z,10.12
2024-05-09T11:34:56.880Z,10.09
2024-05-09T11:38:05.803Z,10.13
2024-05-09T11:41:20.784Z,10.05
2024-05-09T11:44:32.880Z,9.88
2024-05-09T11:47:41.716Z,9.76
2024-05-09T11:50:47.574Z,9.46
2024-05-09T11:53:56.281Z,9.57
2024-05-09T11:57:02.792Z,9.33
2024-05-09T12:00:29.168Z,9.20
2024-05-09T12:03:46.725Z,9.05
2024-05-09T12:06:59.711Z,8.78
2024-05-09T12:10:09.430Z,8.67
2024-05-09T12:13:22.439Z,8.49
2024-05-09T12:16:31.914Z,8.32
2024-05-09T12:19:41.915Z,8.19
2024-05-09T12:22:48.472Z,7.96
2024-05-09T12:25:57.362Z,7.97
2024-05-09T12:29:03.537Z,7.78
2024-05-09T12:32:15.598Z,7.93
2024-05-09T12:35:24.639Z,7.92
2024-05-09T12:38:33.902Z,7.77
2024-05-09T12:41:42.573Z,7.39
2024-05-09T12:44:51.171Z,7.53
2024-05-09T12:48:00.834Z,7.43
2024-05-09T12:51:10.727Z,7.33
2024-05-09T12:54:16.862Z,7.03
2024-05-09T12:57:26.623Z,6.97
2024-05-09T13:00:36.201Z,6.78
2024-05-09T13:03:48.358Z,6.67
2024-05-09T13:06:54.842Z,6.71
2024-05-09T13:10:04.644Z,6.69
2024-05-09T13:13:12.376Z,6.63
2024-05-09T13:16:23.334Z,6.68
2024-05-09T13:19:34.930Z,6.68
2024-05-09T13:22:41.454Z,6.49
2024-05-09T13:25:50.321Z,6.49
2024-05-09T13:28:56.091Z,6.32
2024-05-09T13:32:04.714Z,6.25
2024-05-09T13:35:17.005Z,6.27
2024-05-09T13:38:26.304Z,5.96
2024-05-09T13:41:32.104Z,6.34
2024-05-09T13:44:40.470Z,5.97
2024-05-09T13:47:46.282Z,5.75
2024-05-09T13:51:00.390Z,6.11
2024-05-09T13:54:07.010Z,6.00
2024-05-09T13:57:15.390Z,5.92
2024-05-09T14:03:33.577Z,5.61
2024-05-09T14:06:46.655Z,5.23
2024-05-09T14:09:53.139Z,5.01
2024-05-09T14:13:02.110Z,5.06
2024-05-09T14:16:08.925Z,5.00
2024-05-09T14:19:17.833Z,4.92
2024-05-09T14:22:26.560Z,4.82
2024-05-09T14:25:39.757Z,4.65
2024-05-09T14:28:50.741Z,4.46
2024-05-09T14:31:57.181Z,4.56
2024-05-09T14:35:06.527Z,4.61
2024-05-09T14:38:18.975Z,4.64
2024-05-09T14:41:27.570Z,4.50
2024-05-09T14:44:33.801Z,4.53
2024-05-09T14:47:44.277Z,4.52
2024-05-09T14:50:50.264Z,4.45
2024-05-09T14:54:02.068Z,4.09
2024-05-09T14:57:07.958Z,3.73
2024-05-09T15:00:24.798Z,3.61
2024-05-09T15:03:34.711Z,3.90
2024-05-09T15:06:45.082Z,3.83
2024-05-09T15:09:54.171Z,4.03
2024-05-09T15:13:03.432Z,4.01
2024-05-09T15:16:12.967Z,3.94
2024-05-09T15:19:22.423Z,3.77
2024-05-09T15:22:31.778Z,3.90
2024-05-09T15:25:45.168Z,3.68
2024-05-09T15:28:53.980Z,3.69
2024-05-09T15:31:59.813Z,3.47
2024-05-09T15:35:09.027Z,3.71
2024-05-09T15:38:15.579Z,3.60
2024-05-09T15:41:27.167Z,3.80
2024-05-09T15:44:33.012Z,3.54
2024-05-09T15:47:41.923Z,3.21
2024-05-09T15:50:47.999Z,3.13
2024-05-09T15:53:57.309Z,3.10
2024-05-09T15:57:10.891Z,3.07
2024-05-09T16:00:24.956Z,2.79
2024-05-09T16:03:43.033Z,2.95
2024-05-09T16:06:49.223Z,3.04
2024-05-09T16:09:58.444Z,3.07
2024-05-09T16:13:07.658Z,3.18
2024-05-09T16:16:17.128Z,2.74
2024-05-09T16:19:23.227Z,2.78
2024-05-09T16:22:32.150Z,2.71
2024-05-09T16:25:38.590Z,2.57
2024-05-09T16:28:50.619Z,2.67
2024-05-09T16:31:56.846Z,2.64
2024-05-09T16:35:05.371Z,2.60
2024-05-09T16:38:14.348Z,2.70
2024-05-09T16:41:20.684Z,2.26
2024-05-09T16:44:34.402Z,2.38
2024-05-09T16:47:41.660Z,2.39
2024-05-09T16:50:50.745Z,1.93
2024-05-09T16:53:56.781Z,2.20
2024-05-09T16:57:06.188Z,2.16
2024-05-09T17:00:25.207Z,2.40
2024-05-09T17:03:40.696Z,2.31
2024-05-09T17:06:47.133Z,1.89
2024-05-09T17:09:56.136Z,2.17
2024-05-09T17:13:06.495Z,2.14
2024-05-09T17:16:21.828Z,2.03
2024-05-09T17:19:30.567Z,2.03
2024-05-09T17:22:36.199Z,1.87
2024-05-09T17:25:44.700Z,1.81
2024-05-09T17:28:53.433Z,1.48
2024-05-09T17:32:07.806Z,1.57
2024-05-09T17:35:16.318Z,1.76
2024-05-09T17:38:26.524Z,1.83
2024-05-09T17:41:33.748Z,1.84
2024-05-09T17:44:41.742Z,1.49
2024-05-09T17:47:51.504Z,1.35
2024-05-09T17:51:00.664Z,1.44
2024-05-09T17:54:07.807Z,1.33
2024-05-09T17:57:16.810Z,1.28
2024-05-09T18:00:33.093Z,1.44
2024-05-09T18:03:51.112Z,1.13
2024-05-09T18:06:57.804Z,1.05
2024-05-09T18:10:12.612Z,0.95
2024-05-09T18:13:24.956Z,1.32
2024-05-09T18:16:34.069Z,1.20
2024-05-09T18:19:44.719Z,0.98
2024-05-09T18:22:55.629Z,0.73
2024-05-09T18:26:06.475Z,0.90
2024-05-09T18:29:12.555Z,0.73
2024-05-09T18:32:21.138Z,0.86
2024-05-09T18:35:30.201Z,0.90
2024-05-09T18:38:38.826Z,1.02
2024-05-09T18:41:44.749Z,1.01
2024-05-09T18:44:52.812Z,0.62
2024-05-09T18:48:00.212Z,0.57
2024-05-09T18:51:12.402Z,0.66
2024-05-09T18:54:18.417Z,0.39
2024-05-09T18:57:27.055Z,0.72
2024-05-09T19:00:36.962Z,0.70
2024-05-09T19:03:49.313Z,0.74
2024-05-09T19:06:58.274Z,0.43
2024-05-09T19:10:14.634Z,-0.35
2024-05-09T19:13:30.872Z,0.24
2024-05-09T19:16:37.292Z,0.13
2024-05-09T19:19:46.679Z,0.27
2024-05-09T19:22:55.495Z,0.18
2024-05-09T19:26:06.350Z,0.02
2024-05-09T19:29:15.101Z,0.58
2024-05-09T19:32:24.574Z,0.42
2024-05-09T19:35:30.766Z,0.27
2024-05-09T19:38:42.523Z,0.21
2024-05-09T19:41:48.354Z,-0.31
2024-05-09T19:44:56.967Z,-0.07
2024-05-09T19:48:03.107Z,0.12
2024-05-09T19:51:12.204Z,0.18
2024-05-09T19:54:23.678Z,0.16
2024-05-09T19:57:33.139Z,0.71
2024-05-09T20:00:41.987Z,0.56
2024-05-09T20:03:53.186Z,0.64
2024-05-09T20:06:59.215Z,0.63
2024-05-09T20:10:16.747Z,0.50
2024-05-09T20:13:32.208Z,0.63
2024-05-09T20:16:37.785Z,0.74
2024-05-09T20:19:48.155Z,0.72
2024-05-09T20:22:54.094Z,0.78
2024-05-09T20:26:06.517Z,0.87
2024-05-09T20:29:12.572Z,0.60
2024-05-09T20:32:23.244Z,0.77
2024-05-09T20:35:31.411Z,0.74
2024-05-09T20:38:40.910Z,1.03
2024-05-09T20:41:52.542Z,1.22
2024-05-09T20:44:58.682Z,1.07
2024-05-09T20:48:07.603Z,1.54
2024-05-09T20:51:16.230Z,1.80
2024-05-09T20:54:24.950Z,2.19
2024-05-09T20:57:36.809Z,2.60
2024-05-09T21:00:45.316Z,2.72
2024-05-09T21:03:55.452Z,2.82
2024-05-09T21:07:01.764Z,2.37
2024-05-09T21:10:22.538Z,3.03
2024-05-09T21:13:35.415Z,3.00
2024-05-09T21:16:41.240Z,3.57
2024-05-09T21:19:50.420Z,3.67
2024-05-09T21:22:56.016Z,3.86
2024-05-09T21:26:04.858Z,4.50
2024-05-09T21:29:13.788Z,4.92
2024-05-09T21:32:24.092Z,5.00
2024-05-09T21:35:30.288Z,5.30
2024-05-09T21:38:39.067Z,5.41
2024-05-09T21:41:45.169Z,5.55
2024-05-09T21:44:56.752Z,6.00
2024-05-09T21:48:05.671Z,6.10
2024-05-09T21:51:18.785Z,7.02
2024-05-09T21:54:24.730Z,7.08
2024-05-09T21:57:33.858Z,7.49
2024-05-09T22:00:47.098Z,8.09
2024-05-09T22:03:52.950Z,8.46
2024-05-09T22:07:02.331Z,9.14
2024-05-09T22:10:19.614Z,9.88
2024-05-09T22:19:20.634Z,11.26
2024-05-09T22:22:59.407Z,15.04
2024-05-09T22:26:05.242Z,15.88
2024-05-09T22:29:14.293Z,16.49
2024-05-09T22:32:20.864Z,16.86
2024-05-09T22:35:41.168Z,16.84
2024-05-09T22:38:49.801Z,17.97
2024-05-09T22:41:58.512Z,18.78
2024-05-09T22:45:09.985Z,19.59
2024-05-09T22:48:21.104Z,19.93
2024-05-09T22:51:33.081Z,19.38
2024-05-09T22:54:39.577Z,18.98
2024-05-09T22:57:51.924Z,19.40
2024-05-09T23:01:04.021Z,19.13
2024-05-09T23:04:09.840Z,19.17
2024-05-09T23:07:21.417Z,18.58
2024-05-09T23:10:35.795Z,18.82
2024-05-09T23:13:43.336Z,18.64
2024-05-09T23:16:52.202Z,16.58
2024-05-09T23:19:57.855Z,17.05
2024-05-09T23:23:11.233Z,16.78
2024-05-09T23:26:18.096Z,18.16
2024-05-09T23:29:27.097Z,18.61
2024-05-09T23:32:33.105Z,19.79
2024-05-09T23:35:48.337Z,21.40
2024-05-09T23:39:03.164Z,21.87
2024-05-09T23:42:15.141Z,21.81
2024-05-09T23:45:25.827Z,22.53
2024-05-09T23:48:34.793Z,23.15
2024-05-09T23:51:49.833Z,23.29
2024-05-09T23:55:02.044Z,25.20
2024-05-09T23:58:09.846Z,25.19
